createdAt,value
2023-02-21T00:02:40.561Z,7.27
2023-02-21T00:05:26.830Z,5.80
2023-02-21T00:08:11.957Z,4.80
2023-02-21T00:10:57.016Z,5.37
2023-02-21T00:13:42.259Z,6.37
2023-02-21T00:16:27.317Z,6.27
2023-02-21T00:19:12.990Z,6.13
2023-02-21T00:21:58.311Z,5.73
2023-02-21T00:24:43.738Z,6.20
2023-02-21T00:27:28.934Z,5.30
2023-02-21T00:30:14.622Z,5.80
2023-02-21T00:33:00.080Z,6.50
2023-02-21T00:35:45.464Z,6.13
2023-02-21T00:38:30.679Z,7.23
2023-02-21T00:41:16.197Z,6.73
2023-02-21T00:44:02.918Z,7.60
2023-02-21T00:46:48.270Z,7.33
2023-02-21T00:49:33.421Z,6.00
2023-02-21T00:52:20.684Z,5.30
2023-02-21T00:55:06.088Z,7.20
2023-02-21T00:57:52.508Z,5.63
2023-02-21T01:00:40.670Z,4.30
2023-02-21T01:03:26.548Z,5.43
2023-02-21T01:06:13.705Z,4.97
2023-02-21T01:09:03.430Z,5.50
2023-02-21T01:11:49.197Z,5.47
2023-02-21T01:14:35.006Z,6.43
2023-02-21T01:17:20.696Z,4.47
2023-02-21T01:20:05.958Z,5.80
2023-02-21T01:22:51.029Z,4.57
2023-02-21T01:25:36.371Z,4.73
2023-02-21T01:28:21.146Z,5.40
2023-02-21T01:31:06.385Z,7.17
2023-02-21T01:33:58.958Z,5.57
2023-02-21T01:36:44.344Z,4.67
2023-02-21T01:39:29.465Z,6.13
2023-02-21T01:42:14.468Z,5.53
2023-02-21T01:45:01.457Z,5.73
2023-02-21T01:47:46.793Z,5.27
2023-02-21T01:50:42.203Z,6.10
2023-02-21T01:53:32.582Z,4.13
2023-02-21T01:56:19.254Z,5.60
2023-02-21T01:59:05.604Z,5.77
2023-02-21T02:01:56.470Z,5.13
2023-02-21T02:04:41.901Z,7.00
2023-02-21T02:07:28.552Z,7.03
2023-02-21T02:10:14.414Z,6.07
2023-02-21T02:12:59.968Z,6.10
2023-02-21T02:15:35.299Z,5.70
2023-02-21T02:18:21.150Z,6.13
2023-02-21T02:21:11.982Z,7.87
2023-02-21T02:23:57.841Z,5.00
2023-02-21T02:26:52.282Z,5.47
2023-02-21T02:29:38.568Z,4.87
2023-02-21T02:32:33.909Z,6.80
2023-02-21T02:35:17.739Z,4.63
2023-02-21T02:38:23.387Z,5.53
2023-02-21T02:41:18.642Z,5.87
2023-02-21T02:43:51.646Z,4.70
2023-02-21T02:46:28.195Z,6.73
2023-02-21T02:49:06.170Z,8.20
2023-02-21T02:51:34.409Z,7.03
2023-02-21T02:54:01.208Z,5.10
2023-02-21T02:56:29.288Z,4.77
2023-02-21T02:59:03.543Z,5.07
2023-02-21T03:01:48.933Z,7.67
2023-02-21T03:04:49.970Z,5.73
2023-02-21T03:07:43.712Z,6.40
2023-02-21T03:10:34.625Z,6.23
2023-02-21T03:13:18.896Z,4.87
2023-02-21T03:15:52.966Z,6.30
2023-02-21T03:18:28.467Z,7.93
2023-02-21T03:20:57.802Z,7.07
2023-02-21T03:23:27.165Z,7.50
2023-02-21T03:25:55.708Z,5.87
2023-02-21T03:28:22.447Z,5.50
2023-02-21T03:30:51.673Z,9.53
2023-02-21T03:33:18.377Z,6.00
2023-02-21T03:35:45.237Z,5.70
2023-02-21T03:38:11.934Z,6.80
2023-02-21T03:40:38.612Z,5.80
2023-02-21T03:43:07.407Z,7.53
2023-02-21T03:45:35.278Z,6.63
2023-02-21T03:48:02.123Z,6.53
2023-02-21T03:50:28.636Z,6.47
2023-02-21T03:52:55.273Z,7.40
2023-02-21T03:55:22.354Z,7.27
2023-02-21T03:57:49.467Z,6.80
2023-02-21T04:00:16.285Z,7.87
2023-02-21T04:02:43.367Z,9.13
2023-02-21T04:05:09.905Z,7.90
2023-02-21T04:07:36.402Z,6.40
2023-02-21T04:10:03.199Z,8.07
2023-02-21T04:12:30.461Z,7.87
2023-02-21T04:14:58.625Z,8.43
2023-02-21T04:17:25.458Z,7.20
2023-02-21T04:19:52.371Z,7.87
2023-02-21T04:22:18.877Z,10.13
2023-02-21T04:24:45.374Z,8.43
2023-02-21T04:27:11.783Z,8.73
2023-02-21T04:29:38.263Z,10.27
2023-02-21T04:32:05.068Z,8.13
2023-02-21T04:34:31.669Z,10.07
2023-02-21T04:36:58.151Z,8.73
2023-02-21T04:39:24.806Z,10.13
2023-02-21T04:41:51.298Z,11.10
2023-02-21T04:44:18.289Z,8.33
2023-02-21T04:46:44.761Z,8.80
2023-02-21T04:49:13.063Z,10.33
2023-02-21T04:51:39.607Z,10.23
2023-02-21T04:54:07.787Z,11.17
2023-02-21T04:56:34.565Z,8.97
2023-02-21T04:59:01.423Z,11.73
2023-02-21T05:01:30.680Z,12.17
2023-02-21T05:03:58.731Z,11.03
2023-02-21T05:06:26.610Z,9.87
2023-02-21T05:08:53.413Z,10.67
2023-02-21T05:11:21.313Z,13.13
2023-02-21T05:13:48.015Z,11.43
2023-02-21T05:16:14.621Z,16.03
2023-02-21T05:18:45.782Z,21.73
2023-02-21T05:21:13.671Z,35.37
2023-02-21T05:23:41.202Z,15.70
2023-02-21T05:26:10.601Z,25.93
2023-02-21T05:28:38.342Z,25.23
2023-02-21T05:31:05.626Z,26.10
2023-02-21T05:33:32.794Z,14.93
2023-02-21T05:35:59.348Z,19.07
2023-02-21T05:38:27.141Z,21.30
2023-02-21T05:40:53.935Z,14.40
2023-02-21T05:43:20.867Z,11.93
2023-02-21T05:45:47.470Z,11.40
2023-02-21T05:48:14.242Z,13.97
2023-02-21T05:50:40.760Z,13.30
2023-02-21T05:53:09.828Z,12.03
2023-02-21T05:55:37.044Z,12.80
2023-02-21T05:58:03.584Z,14.07
2023-02-21T06:00:30.357Z,13.20
2023-02-21T06:02:57.218Z,13.93
2023-02-21T06:05:23.856Z,12.10
2023-02-21T06:07:50.431Z,12.97
2023-02-21T06:10:17.754Z,14.33
2023-02-21T06:12:44.367Z,15.23
2023-02-21T06:15:12.771Z,12.60
2023-02-21T06:17:40.067Z,12.87
2023-02-21T06:20:08.649Z,14.30
2023-02-21T06:22:35.122Z,13.07
2023-02-21T06:25:01.720Z,12.13
2023-02-21T06:27:28.264Z,12.53
2023-02-21T06:29:54.771Z,13.77
2023-02-21T06:32:21.401Z,13.57
2023-02-21T06:34:47.936Z,15.57
2023-02-21T06:37:14.450Z,13.97
2023-02-21T06:39:41.115Z,12.70
2023-02-21T06:42:07.549Z,13.00
2023-02-21T06:44:34.223Z,14.00
2023-02-21T06:47:00.822Z,12.73
2023-02-21T06:49:27.272Z,12.70
2023-02-21T06:51:53.772Z,13.40
2023-02-21T06:54:20.425Z,14.43
2023-02-21T06:56:47.339Z,15.63
2023-02-21T06:59:13.877Z,12.43
2023-02-21T07:01:40.381Z,12.90
2023-02-21T07:04:07.528Z,14.37
2023-02-21T07:06:34.136Z,12.67
2023-02-21T07:09:00.623Z,14.50
2023-02-21T07:11:28.140Z,14.20
2023-02-21T07:13:56.767Z,13.00
2023-02-21T07:16:23.626Z,14.90
2023-02-21T07:18:50.189Z,14.00
2023-02-21T07:21:17.809Z,14.67
2023-02-21T07:23:45.043Z,14.30
2023-02-21T07:26:12.135Z,16.07
2023-02-21T07:28:39.008Z,18.90
2023-02-21T07:31:05.598Z,18.40
2023-02-21T07:33:32.232Z,15.90
2023-02-21T07:35:58.734Z,16.53
2023-02-21T07:38:27.742Z,19.43
2023-02-21T07:40:55.853Z,15.53
2023-02-21T07:43:22.416Z,21.17
2023-02-21T07:45:48.890Z,15.37
2023-02-21T07:48:15.541Z,17.87
2023-02-21T07:50:42.627Z,18.33
2023-02-21T07:53:11.191Z,16.27
2023-02-21T07:55:38.018Z,15.70
2023-02-21T07:58:05.119Z,16.97
2023-02-21T08:00:32.242Z,18.20
2023-02-21T08:02:59.092Z,20.27
2023-02-21T08:05:25.701Z,17.17
2023-02-21T08:07:52.389Z,18.83
2023-02-21T08:10:22.178Z,18.27
2023-02-21T08:12:49.206Z,17.47
2023-02-21T08:15:15.766Z,18.17
2023-02-21T08:17:42.470Z,20.07
2023-02-21T08:20:09.422Z,18.53
2023-02-21T08:22:39.435Z,21.83
2023-02-21T08:25:06.220Z,20.40
2023-02-21T08:27:32.708Z,23.43
2023-02-21T08:29:59.175Z,19.60
2023-02-21T08:32:26.549Z,18.77
2023-02-21T08:34:53.045Z,19.70
2023-02-21T08:37:20.193Z,17.30
2023-02-21T08:39:48.080Z,19.27
2023-02-21T08:42:14.874Z,17.80
2023-02-21T08:44:44.375Z,18.50
2023-02-21T08:47:11.795Z,18.90
2023-02-21T08:49:40.213Z,20.07
2023-02-21T08:52:07.585Z,20.77
2023-02-21T08:54:34.580Z,17.50
2023-02-21T08:57:01.308Z,17.30
2023-02-21T08:59:30.371Z,17.13
2023-02-21T09:01:56.875Z,18.13
2023-02-21T09:04:24.716Z,15.60
2023-02-21T09:06:51.384Z,15.50
2023-02-21T09:09:18.014Z,15.80
2023-02-21T09:11:47.142Z,16.37
2023-02-21T09:14:14.121Z,19.23
2023-02-21T09:16:41.870Z,15.40
2023-02-21T09:19:08.861Z,15.13
2023-02-21T09:21:35.979Z,15.27
2023-02-21T09:24:05.796Z,15.60
2023-02-21T09:26:32.234Z,15.40
2023-02-21T09:28:58.869Z,15.57
2023-02-21T09:31:25.675Z,16.93
2023-02-21T09:33:52.180Z,14.23
2023-02-21T09:36:24.096Z,16.80
2023-02-21T09:38:53.379Z,15.40
2023-02-21T09:41:20.289Z,16.83
2023-02-21T09:43:49.123Z,15.07
2023-02-21T09:46:34.093Z,15.63
2023-02-21T09:49:02.113Z,15.60
2023-02-21T09:51:28.597Z,14.50
2023-02-21T09:53:56.589Z,18.07
2023-02-21T09:56:39.323Z,17.40
2023-02-21T09:59:13.134Z,15.43
2023-02-21T10:01:51.821Z,15.63
2023-02-21T10:04:56.104Z,17.50
2023-02-21T10:07:32.036Z,14.93
2023-02-21T10:10:22.154Z,11.93
2023-02-21T10:13:14.672Z,16.20
2023-02-21T10:16:00.296Z,13.80
2023-02-21T10:18:56.208Z,13.93
2023-02-21T10:21:26.778Z,13.87
2023-02-21T10:23:57.750Z,15.27
2023-02-21T10:26:29.139Z,12.80
2023-02-21T10:28:57.586Z,16.63
2023-02-21T10:31:31.492Z,13.27
2023-02-21T10:33:59.927Z,12.97
2023-02-21T10:36:27.264Z,11.73
2023-02-21T10:39:07.457Z,13.53
2023-02-21T10:41:37.434Z,12.47
2023-02-21T10:44:22.297Z,14.30
2023-02-21T10:46:58.249Z,13.23
2023-02-21T10:49:29.543Z,11.53
2023-02-21T10:52:08.486Z,12.33
2023-02-21T10:54:35.524Z,11.37
2023-02-21T10:57:04.467Z,12.87
2023-02-21T10:59:34.331Z,12.87
2023-02-21T11:02:03.165Z,12.97
2023-02-21T11:04:38.584Z,13.67
2023-02-21T11:07:09.069Z,12.50
2023-02-21T11:09:36.535Z,13.93
2023-02-21T11:12:11.405Z,15.63
2023-02-21T11:14:37.957Z,17.40
2023-02-21T11:17:15.961Z,13.70
2023-02-21T11:19:48.784Z,15.43
2023-02-21T11:22:16.986Z,15.10
2023-02-21T11:24:58.123Z,14.23
2023-02-21T11:27:25.394Z,16.80
2023-02-21T11:29:53.002Z,14.90
2023-02-21T11:32:25.301Z,17.27
2023-02-21T11:34:51.892Z,14.63
2023-02-21T11:37:18.990Z,14.93
2023-02-21T11:39:50.950Z,14.10
2023-02-21T11:42:32.842Z,12.77
2023-02-21T11:45:14.511Z,13.73
2023-02-21T11:47:48.682Z,14.03
2023-02-21T11:50:26.241Z,13.07
2023-02-21T11:52:59.914Z,13.97
2023-02-21T11:55:26.804Z,13.03
2023-02-21T11:58:15.479Z,12.67
2023-02-21T12:01:05.654Z,13.73
2023-02-21T12:03:50.987Z,14.87
2023-02-21T12:06:44.121Z,15.93
2023-02-21T12:09:19.808Z,12.10
2023-02-21T12:11:54.710Z,15.47
2023-02-21T12:14:52.366Z,15.70
2023-02-21T12:17:37.948Z,16.00
2023-02-21T12:20:29.670Z,22.33
2023-02-21T12:23:09.317Z,17.87
2023-02-21T12:25:58.316Z,31.77
2023-02-21T12:28:52.490Z,30.93
2023-02-21T12:31:28.075Z,18.60
2023-02-21T12:34:22.394Z,12.63
2023-02-21T12:37:02.584Z,12.97
2023-02-21T12:39:45.178Z,16.53
2023-02-21T12:42:24.169Z,13.50
2023-02-21T12:45:16.979Z,14.27
2023-02-21T12:48:21.994Z,12.30
2023-02-21T12:50:54.756Z,11.37
2023-02-21T12:53:41.646Z,12.60
2023-02-21T12:56:21.031Z,12.30
2023-02-21T12:58:59.552Z,14.53
2023-02-21T13:01:50.074Z,11.27
2023-02-21T13:04:37.144Z,13.90
2023-02-21T13:07:11.220Z,15.80
2023-02-21T13:09:42.962Z,11.10
2023-02-21T13:12:25.909Z,14.43
2023-02-21T13:14:56.523Z,13.67
2023-02-21T13:17:23.403Z,12.77
2023-02-21T13:19:54.919Z,13.30
2023-02-21T13:22:58.983Z,13.37
2023-02-21T13:26:24.046Z,12.53
2023-02-21T13:28:54.480Z,12.33
2023-02-21T13:31:24.759Z,13.57
2023-02-21T13:33:53.726Z,12.07
2023-02-21T13:36:38.502Z,13.10
2023-02-21T13:39:21.889Z,11.83
2023-02-21T13:41:55.814Z,20.83
2023-02-21T13:44:36.594Z,14.53
2023-02-21T13:47:10.371Z,13.60
2023-02-21T13:49:50.552Z,13.20
2023-02-21T13:52:20.122Z,12.30
2023-02-21T13:55:21.190Z,14.87
2023-02-21T13:58:00.504Z,14.67
2023-02-21T14:00:27.585Z,14.97
2023-02-21T14:03:05.596Z,15.17
2023-02-21T14:05:47.665Z,15.67
2023-02-21T14:08:35.716Z,14.50
2023-02-21T14:11:05.309Z,15.47
2023-02-21T14:13:39.362Z,14.87
2023-02-21T14:16:17.664Z,13.30
2023-02-21T14:19:01.565Z,13.43
2023-02-21T14:21:41.901Z,14.53
2023-02-21T14:24:27.655Z,13.93
2023-02-21T14:26:54.066Z,14.03
2023-02-21T14:29:45.537Z,14.33
2023-02-21T14:32:12.299Z,12.93
2023-02-21T14:34:47.719Z,13.13
2023-02-21T14:37:45.258Z,12.97
2023-02-21T14:40:14.777Z,15.27
2023-02-21T14:43:02.067Z,14.40
2023-02-21T14:45:46.864Z,14.90
2023-02-21T14:48:32.146Z,12.93
2023-02-21T14:51:29.437Z,14.17
2023-02-21T14:54:00.325Z,13.83
2023-02-21T14:56:45.969Z,11.27
2023-02-21T14:59:31.125Z,11.83
2023-02-21T15:02:10.986Z,13.93
2023-02-21T15:04:42.744Z,12.67
2023-02-21T15:07:18.768Z,12.43
2023-02-21T15:09:46.474Z,14.00
2023-02-21T15:12:17.582Z,11.07
2023-02-21T15:14:50.568Z,11.60
2023-02-21T15:17:21.425Z,17.43
2023-02-21T15:20:01.916Z,13.00
2023-02-21T15:22:28.441Z,12.90
2023-02-21T15:25:11.039Z,12.70
2023-02-21T15:27:43.684Z,12.93
2023-02-21T15:30:22.594Z,12.17
2023-02-21T15:33:30.813Z,14.43
2023-02-21T15:36:01.053Z,12.70
2023-02-21T15:38:33.440Z,13.10
2023-02-21T15:41:07.578Z,12.60
2023-02-21T15:43:43.440Z,12.67
2023-02-21T15:46:14.685Z,15.83
2023-02-21T15:48:41.283Z,13.30
2023-02-21T15:51:09.214Z,16.63
2023-02-21T15:53:35.891Z,12.77
2023-02-21T15:56:35.232Z,12.63
2023-02-21T15:59:19.220Z,11.90
2023-02-21T16:01:45.846Z,15.67
2023-02-21T16:04:20.956Z,11.43
2023-02-21T16:06:54.182Z,11.93
2023-02-21T16:09:25.509Z,13.73
2023-02-21T16:12:03.454Z,11.83
2023-02-21T16:14:45.931Z,13.17
2023-02-21T16:17:15.208Z,12.90
2023-02-21T16:19:45.168Z,11.47
2023-02-21T16:22:21.549Z,11.77
2023-02-21T16:24:48.048Z,12.77
2023-02-21T16:27:16.848Z,12.30
2023-02-21T16:29:43.434Z,11.27
2023-02-21T16:32:18.774Z,13.53
2023-02-21T16:34:45.861Z,10.13
2023-02-21T16:37:14.057Z,12.30
2023-02-21T16:39:41.320Z,18.33
2023-02-21T16:42:07.918Z,12.43
2023-02-21T16:44:34.445Z,12.07
2023-02-21T16:47:00.985Z,12.07
2023-02-21T16:49:27.421Z,12.03
2023-02-21T16:51:54.004Z,12.70
2023-02-21T16:54:20.681Z,12.03
2023-02-21T16:56:49.098Z,11.97
2023-02-21T16:59:18.786Z,12.17
2023-02-21T17:01:45.880Z,13.07
2023-02-21T17:04:18.187Z,13.10
2023-02-21T17:06:47.541Z,11.83
2023-02-21T17:09:20.442Z,13.87
2023-02-21T17:11:47.280Z,12.77
2023-02-21T17:14:14.747Z,11.73
2023-02-21T17:16:44.891Z,12.30
2023-02-21T17:19:16.185Z,11.37
2023-02-21T17:21:43.860Z,9.93
2023-02-21T17:24:11.965Z,11.33
2023-02-21T17:26:38.832Z,11.57
2023-02-21T17:29:05.866Z,11.33
2023-02-21T17:31:32.535Z,10.47
2023-02-21T17:33:59.136Z,12.10
2023-02-21T17:36:27.196Z,10.17
2023-02-21T17:38:54.184Z,9.87
2023-02-21T17:41:21.310Z,10.73
2023-02-21T17:43:47.956Z,10.40
2023-02-21T17:46:16.462Z,11.27
2023-02-21T17:48:44.787Z,12.83
2023-02-21T17:51:21.547Z,11.20
2023-02-21T17:53:48.729Z,12.17
2023-02-21T17:56:19.868Z,15.70
2023-02-21T17:58:46.560Z,11.67
2023-02-21T18:01:18.649Z,14.20
2023-02-21T18:03:47.351Z,11.33
2023-02-21T18:06:15.096Z,14.27
2023-02-21T18:08:44.734Z,12.87
2023-02-21T18:11:13.210Z,10.63
2023-02-21T18:13:39.955Z,11.80
2023-02-21T18:16:06.531Z,14.37
2023-02-21T18:18:33.938Z,13.13
2023-02-21T18:21:02.438Z,13.47
2023-02-21T18:23:30.501Z,14.80
2023-02-21T18:25:57.773Z,12.53
2023-02-21T18:28:24.904Z,14.50
2023-02-21T18:30:53.662Z,11.10
2023-02-21T18:33:22.010Z,12.43
2023-02-21T18:35:48.780Z,12.73
2023-02-21T18:38:16.575Z,12.93
2023-02-21T18:40:46.009Z,12.23
2023-02-21T18:43:27.341Z,12.17
2023-02-21T18:45:54.955Z,10.37
2023-02-21T18:48:22.434Z,13.83
2023-02-21T18:50:49.275Z,13.10
2023-02-21T18:53:16.357Z,10.10
2023-02-21T18:55:42.870Z,12.13
2023-02-21T18:58:09.677Z,11.83
2023-02-21T19:00:37.009Z,20.90
2023-02-21T19:03:06.200Z,11.53
2023-02-21T19:05:33.668Z,7.53
2023-02-21T19:08:00.416Z,12.40
2023-02-21T19:10:28.633Z,12.27
2023-02-21T19:12:55.547Z,10.23
2023-02-21T19:15:22.057Z,9.87
2023-02-21T19:17:49.508Z,10.13
2023-02-21T19:20:19.258Z,8.67
2023-02-21T19:22:46.101Z,8.98
2023-02-21T19:25:13.096Z,9.30
2023-02-21T19:27:39.478Z,9.70
2023-02-21T19:30:07.812Z,9.90
2023-02-21T19:32:36.467Z,10.30
2023-02-21T19:35:04.490Z,10.33
2023-02-21T19:37:31.557Z,8.93
2023-02-21T19:39:58.290Z,8.93
2023-02-21T19:42:24.829Z,8.93
2023-02-21T19:44:51.415Z,9.37
2023-02-21T19:47:17.882Z,9.93
2023-02-21T19:49:46.026Z,11.60
2023-02-21T19:52:12.593Z,10.10
2023-02-21T19:54:39.132Z,11.60
2023-02-21T19:57:05.623Z,12.43
2023-02-21T19:59:33.934Z,9.63
2023-02-21T20:02:00.889Z,10.67
2023-02-21T20:04:28.744Z,9.40
2023-02-21T20:06:58.827Z,9.57
2023-02-21T20:09:25.729Z,11.30
2023-02-21T20:11:52.303Z,11.63
2023-02-21T20:14:18.882Z,9.63
2023-02-21T20:16:46.608Z,9.93
2023-02-21T20:19:13.745Z,9.57
2023-02-21T20:21:40.463Z,9.53
2023-02-21T20:24:10.935Z,10.63
2023-02-21T20:26:38.153Z,9.33
2023-02-21T20:29:05.755Z,8.77
2023-02-21T20:31:33.700Z,8.97
2023-02-21T20:34:03.053Z,11.43
2023-02-21T20:36:35.240Z,10.63
2023-02-21T20:39:02.619Z,9.67
2023-02-21T20:41:33.451Z,9.27
2023-02-21T20:44:00.150Z,11.17
2023-02-21T20:46:28.340Z,11.00
2023-02-21T20:48:58.460Z,11.57
2023-02-21T20:51:34.601Z,12.20
2023-02-21T20:54:01.711Z,11.53
2023-02-21T20:56:31.852Z,11.53
2023-02-21T20:58:58.370Z,10.83
2023-02-21T21:01:25.681Z,11.93
2023-02-21T21:03:52.656Z,10.00
2023-02-21T21:06:19.131Z,10.50
2023-02-21T21:08:45.726Z,10.67
2023-02-21T21:11:13.026Z,11.10
2023-02-21T21:13:39.656Z,10.60
2023-02-21T21:16:09.877Z,10.10
2023-02-21T21:18:36.429Z,13.87
2023-02-21T21:21:03.081Z,13.37
2023-02-21T21:23:29.489Z,9.90
2023-02-21T21:25:56.809Z,10.87
2023-02-21T21:28:23.348Z,10.23
2023-02-21T21:30:49.839Z,9.13
2023-02-21T21:33:19.476Z,10.80
2023-02-21T21:35:46.078Z,12.00
2023-02-21T21:38:15.051Z,10.07
2023-02-21T21:40:47.800Z,11.57
2023-02-21T21:43:15.246Z,11.27
2023-02-21T21:45:44.495Z,9.40
2023-02-21T21:48:11.090Z,11.43
2023-02-21T21:50:37.561Z,10.00
2023-02-21T21:53:04.130Z,10.70
2023-02-21T21:55:30.678Z,10.83
2023-02-21T21:57:58.627Z,11.63
2023-02-21T22:00:27.242Z,10.90
2023-02-21T22:02:59.080Z,8.53
2023-02-21T22:05:32.541Z,9.23
2023-02-21T22:07:59.672Z,8.63
2023-02-21T22:10:27.141Z,8.27
2023-02-21T22:12:56.539Z,10.03
2023-02-21T22:15:26.481Z,9.00
2023-02-21T22:17:54.218Z,9.83
2023-02-21T22:20:28.330Z,7.60
2023-02-21T22:22:58.616Z,9.70
2023-02-21T22:25:27.625Z,8.33
2023-02-21T22:27:54.487Z,8.53
2023-02-21T22:30:21.844Z,9.03
2023-02-21T22:32:48.943Z,8.43
2023-02-21T22:35:20.399Z,10.10
2023-02-21T22:37:55.568Z,10.57
2023-02-21T22:40:24.615Z,8.07
2023-02-21T22:42:52.524Z,9.80
2023-02-21T22:45:21.884Z,11.00
2023-02-21T22:47:49.501Z,7.77
2023-02-21T22:50:20.331Z,8.40
2023-02-21T22:52:58.091Z,7.77
2023-02-21T22:55:26.273Z,8.97
2023-02-21T22:57:54.590Z,8.57
2023-02-21T23:00:27.124Z,7.83
2023-02-21T23:02:53.720Z,8.03
2023-02-21T23:05:22.392Z,9.93
2023-02-21T23:07:51.222Z,11.17
2023-02-21T23:10:23.507Z,9.70
2023-02-21T23:12:52.155Z,9.17
2023-02-21T23:15:19.402Z,9.00
2023-02-21T23:17:47.913Z,11.30
2023-02-21T23:20:26.661Z,11.40
2023-02-21T23:22:54.812Z,12.70
2023-02-21T23:25:25.452Z,8.97
2023-02-21T23:27:57.579Z,9.60
2023-02-21T23:30:36.301Z,9.23
2023-02-21T23:33:03.179Z,10.90
2023-02-21T23:35:29.628Z,12.87
2023-02-21T23:38:00.018Z,12.00
2023-02-21T23:40:29.867Z,8.33
2023-02-21T23:42:56.626Z,10.33
2023-02-21T23:45:26.304Z,9.73
2023-02-21T23:47:54.931Z,10.07
2023-02-21T23:50:33.036Z,10.60
2023-02-21T23:52:59.767Z,9.77
2023-02-21T23:55:28.859Z,8.83
2023-02-21T23:58:03.288Z,10.30
